Time;durP1;ratioP1;P1;durP2;ratioP2;P2;SDS_P1;SDS_P2;PMS_P1;PMS_P2;Temp;Humidity;BMP_temperature;BMP_pressure;BME280_temperature;BME280_humidity;BME280_pressure;Samples;Min_cycle;Max_cycle;Signal;HPM_P1;HPM_P2
2022/12/15 00:39:31;;;;;;;16.17;10.95;;;;;;;14.00;42.48;91816.75;4941626;28;20528;-91
2022/12/15 00:41:57;;;;;;;17.77;11.27;;;;;;;13.99;42.47;91826.88;4952310;28;20046;-91
2022/12/15 00:44:22;;;;;;;17.98;11.40;;;;;;;13.99;42.30;91828.84;4936449;28;20420;-91
2022/12/15 00:46:54;;;;;;;13.45;10.02;;;;;;;14.05;42.77;91838.38;4943664;28;20417;-87
2022/12/15 01:22:31;;;;;;;14.20;9.40;;;;;;;14.01;42.52;91835.22;4895307;28;20591;-88
2022/12/15 01:24:57;;;;;;;11.70;8.32;;;;;;;14.00;42.78;91843.91;4940712;28;20042;-93
2022/12/15 01:27:22;;;;;;;14.27;9.30;;;;;;;14.02;42.64;91853.00;4920140;28;20043;-89
2022/12/15 01:29:47;;;;;;;14.32;9.10;;;;;;;14.00;42.39;91854.78;4952833;28;20035;-89
2022/12/15 01:32:13;;;;;;;14.55;8.45;;;;;;;14.00;42.47;91855.50;4967753;28;20516;-92
2022/12/15 01:34:38;;;;;;;12.80;8.68;;;;;;;14.00;42.38;91860.94;4952667;28;20499;-92
2022/12/15 01:37:04;;;;;;;11.88;8.20;;;;;;;14.00;42.73;91855.50;4919002;28;20524;-88
2022/12/15 01:40:43;;;;;;;11.25;8.18;;;;;;;14.03;42.47;91848.31;4936937;28;20035;-93
2022/12/15 01:42:14;;;;;;;11.20;8.38;;;;;;;13.98;42.41;91851.84;4941319;28;20047;-88
2022/12/15 01:44:40;;;;;;;12.70;8.65;;;;;;;13.98;42.86;91857.28;4953261;28;20035;-87
2022/12/15 01:47:07;;;;;;;11.18;8.70;;;;;;;13.99;42.87;91858.75;4967211;28;20046;-90
2022/12/15 01:49:33;;;;;;;13.65;8.77;;;;;;;14.01;42.70;91850.81;4984887;28;20114;-94
2022/12/15 01:51:59;;;;;;;11.40;8.13;;;;;;;14.00;42.73;91855.50;4956534;28;20555;-86
2022/12/15 01:54:39;;;;;;;11.68;8.40;;;;;;;13.99;42.46;91851.31;4972062;28;20066;-91
2022/12/15 01:57:07;;;;;;;12.20;8.68;;;;;;;13.98;42.50;91862.72;4970921;28;20043;-88
2022/12/15 01:59:34;;;;;;;12.15;8.25;;;;;;;14.02;42.75;91866.59;4980455;28;20125;-92
2022/12/15 02:02:00;;;;;;;12.15;8.30;;;;;;;14.00;42.64;91869.09;4950637;28;20046;-88
2022/12/15 02:04:28;;;;;;;10.70;7.88;;;;;;;14.02;42.36;91877.47;4920560;28;20036;-91
2022/12/15 02:06:53;;;;;;;12.00;7.97;;;;;;;13.98;42.67;91863.44;4907897;29;20092;-91
2022/12/15 02:09:19;;;;;;;12.65;7.10;;;;;;;14.00;42.54;91860.94;4968877;28;20047;-92
2022/12/15 02:11:48;;;;;;;9.45;7.60;;;;;;;14.00;42.56;91871.06;4960461;28;20047;-89
2022/12/15 02:14:35;;;;;;;11.15;7.43;;;;;;;14.01;42.67;91875.25;4954248;28;20059;-91
2022/12/15 02:17:18;;;;;;;10.13;7.43;;;;;;;13.97;42.83;91875.56;4936835;28;20050;-89
2022/12/15 02:20:08;;;;;;;10.88;7.40;;;;;;;13.98;42.81;91885.16;4955274;28;20047;-88
2022/12/15 02:22:45;;;;;;;9.52;6.90;;;;;;;13.96;42.82;91890.38;4967658;28;20459;-89
2022/12/15 02:25:43;;;;;;;10.27;7.65;;;;;;;14.00;42.61;91893.53;4954915;28;20182;-91
2022/12/15 02:28:29;;;;;;;10.10;7.47;;;;;;;13.99;42.76;91894.06;4924166;28;20528;-91
2022/12/15 02:33:58;;;;;;;12.18;7.18;;;;;;;14.01;42.72;91907.84;4939136;28;20062;-90
2022/12/15 02:36:31;;;;;;;12.02;7.53;;;;;;;13.99;42.58;91913.81;4939032;28;20049;-90
2022/12/15 02:38:57;;;;;;;9.98;6.95;;;;;;;13.95;43.06;91924.25;4940421;28;20122;-92
2022/12/15 02:41:42;;;;;;;10.57;6.82;;;;;;;14.02;42.70;91920.19;4939008;28;20515;-88
2022/12/15 02:44:17;;;;;;;9.23;6.50;;;;;;;13.98;42.87;91920.50;4938919;28;20043;-91
2022/12/15 02:47:13;;;;;;;10.20;6.82;;;;;;;13.96;42.87;91924.97;4953300;28;20058;-92
2022/12/15 02:49:57;;;;;;;10.38;6.70;;;;;;;13.94;42.58;91911.16;4955297;28;20035;-91
2022/12/15 02:52:54;;;;;;;9.38;6.32;;;;;;;14.00;42.81;91909.09;4939129;28;20046;-88
2022/12/15 02:55:49;;;;;;;10.13;6.50;;;;;;;13.97;42.84;91921.00;4952831;28;20050;-87
2022/12/15 02:58:36;;;;;;;8.27;5.88;;;;;;;14.01;42.50;91918.72;4986753;28;20054;-92
2022/12/15 03:01:25;;;;;;;9.68;6.10;;;;;;;13.94;42.71;91927.47;4954472;28;20070;-93
2022/12/15 03:03:51;;;;;;;7.53;6.20;;;;;;;13.93;42.73;91934.88;4968050;28;20564;-90
2022/12/15 03:06:16;;;;;;;8.00;6.13;;;;;;;13.96;42.82;91938.56;4954688;28;20039;-92
2022/12/15 03:08:42;;;;;;;9.07;6.82;;;;;;;13.97;42.77;91934.59;4970923;28;20047;-90
2022/12/15 03:11:07;;;;;;;9.85;6.50;;;;;;;13.97;42.40;91931.88;4986594;28;20035;-89
2022/12/15 03:13:32;;;;;;;8.20;5.85;;;;;;;13.97;42.86;91927.16;4938615;28;20043;-91
2022/12/15 03:15:59;;;;;;;7.90;5.97;;;;;;;13.97;42.73;91923.72;4938817;28;20039;-91
2022/12/15 03:18:24;;;;;;;9.43;5.90;;;;;;;13.98;42.90;91931.34;4953616;28;20062;-91
2022/12/15 03:20:49;;;;;;;7.65;6.15;;;;;;;13.93;42.58;91934.88;4939381;28;20034;-88
2022/12/15 03:23:15;;;;;;;7.43;5.55;;;;;;;13.93;43.01;91942.31;4954063;28;20504;-88
2022/12/15 03:25:42;;;;;;;8.70;6.22;;;;;;;13.99;42.45;91953.81;4935668;28;20480;-92
2022/12/15 03:28:08;;;;;;;7.18;5.60;;;;;;;13.99;42.51;91953.81;4927055;28;20089;-87
2022/12/15 03:30:33;;;;;;;6.68;5.10;;;;;;;14.01;42.61;91959.47;4920057;29;20043;-93
2022/12/15 03:32:58;;;;;;;7.70;6.10;;;;;;;14.00;42.52;91952.56;4954120;28;20043;-89
2022/12/15 03:35:24;;;;;;;9.35;5.68;;;;;;;14.02;42.93;91960.94;4940134;28;20589;-90
2022/12/15 03:37:49;;;;;;;7.38;5.65;;;;;;;14.02;42.65;91956.25;4954361;28;20402;-90
2022/12/15 03:40:15;;;;;;;7.75;5.63;;;;;;;14.02;42.54;91958.97;4953217;28;20038;-90
2022/12/15 03:42:48;;;;;;;7.00;5.50;;;;;;;14.01;42.92;91959.47;4938309;28;20046;-92
2022/12/15 03:45:16;;;;;;;8.80;6.43;;;;;;;14.01;42.80;91968.38;4939468;28;20493;-91
2022/12/15 03:47:41;;;;;;;6.40;5.40;;;;;;;14.06;42.51;91972.25;4937746;28;20069;-89
2022/12/15 03:50:08;;;;;;;7.55;5.35;;;;;;;13.99;42.65;91979.00;4921803;28;20105;-91
2022/12/15 03:52:33;;;;;;;7.15;5.65;;;;;;;13.99;42.65;91992.59;4922595;28;20476;-91
2022/12/15 03:54:58;;;;;;;6.63;5.55;;;;;;;14.00;42.72;91994.06;4937486;28;20109;-92
2022/12/15 03:57:24;;;;;;;9.57;5.97;;;;;;;13.99;42.78;91984.44;4944797;28;20709;-91
2022/12/15 03:59:50;;;;;;;8.07;6.03;;;;;;;13.95;42.53;91986.72;4958535;28;20033;-90
2022/12/15 04:02:15;;;;;;;7.55;5.63;;;;;;;13.98;42.66;91991.13;4937691;28;20924;-87
2022/12/15 04:04:40;;;;;;;7.35;4.97;;;;;;;13.98;42.90;91999.28;4938109;28;20042;-92
2022/12/15 04:07:06;;;;;;;6.68;5.28;;;;;;;13.98;42.44;92002.00;4937407;28;20042;-91
2022/12/15 04:09:31;;;;;;;6.63;5.30;;;;;;;13.99;42.71;92000.00;4953348;28;20042;-91
2022/12/15 04:11:56;;;;;;;7.57;5.18;;;;;;;13.98;42.67;91991.13;4957048;28;20038;-90
2022/12/15 04:14:22;;;;;;;7.47;4.93;;;;;;;14.00;42.52;92010.38;4937624;28;20042;-91
2022/12/15 04:16:50;;;;;;;7.28;5.45;;;;;;;13.97;42.69;92022.25;4969513;28;20093;-91
2022/12/15 04:22:02;;;;;;;6.32;4.35;;;;;;;13.94;42.91;92015.13;4943196;28;20053;-88
2022/12/15 05:32:48;;;;;;;16.23;11.60;;;;;;;13.74;40.47;92069.97;4947296;28;20073;-90
2022/12/15 05:35:13;;;;;;;37.90;30.13;;;;;;;13.82;41.12;92075.56;4948412;28;20046;-88
2022/12/15 05:37:39;;;;;;;30.88;20.10;;;;;;;13.96;41.79;92090.69;4952972;28;20038;-89
2022/12/15 05:40:07;;;;;;;376.85;265.35;;;;;;;14.04;41.68;92095.03;4948324;28;20428;-89
2022/12/15 05:42:32;;;;;;;31.85;24.42;;;;;;;14.05;41.51;92101.94;4923875;28;20084;-88
2022/12/15 05:44:57;;;;;;;20.08;11.73;;;;;;;14.03;41.74;92100.97;4935329;28;20039;-92
2022/12/15 05:47:26;;;;;;;19.70;12.48;;;;;;;14.06;41.40;92089.09;4921184;29;20040;-93
2022/12/15 05:49:54;;;;;;;17.17;11.25;;;;;;;14.02;41.94;92100.25;4873817;29;20127;-92
2022/12/15 05:52:19;;;;;;;17.95;12.48;;;;;;;14.10;41.97;92107.78;4869155;29;20085;-92
2022/12/15 05:54:45;;;;;;;18.83;11.77;;;;;;;14.02;41.27;92100.25;4859801;29;20049;-91
2022/12/15 05:57:10;;;;;;;18.02;11.25;;;;;;;14.03;41.63;92114.56;4865059;29;20069;-92
2022/12/15 05:59:35;;;;;;;26.90;11.23;;;;;;;13.99;41.39;92122.25;4877299;29;20049;-91
2022/12/15 06:02:01;;;;;;;20.60;11.73;;;;;;;14.03;41.54;92118.00;4896737;29;20046;-93
2022/12/15 06:04:26;;;;;;;25.63;16.30;;;;;;;14.03;40.91;92111.84;4899314;29;20725;-92
2022/12/15 06:06:52;;;;;;;37.65;20.60;;;;;;;14.01;41.55;92112.34;4856943;29;20518;-89
2022/12/15 06:09:17;;;;;;;33.65;16.40;;;;;;;14.12;41.34;92114.19;4866415;29;20507;-89
2022/12/15 06:11:43;;;;;;;32.03;16.35;;;;;;;13.95;41.45;92108.97;4857586;29;20049;-89
2022/12/15 06:14:09;;;;;;;32.83;18.77;;;;;;;14.02;41.85;92113.81;4857363;29;20470;-93
2022/12/15 06:16:34;;;;;;;45.22;17.40;;;;;;;14.00;42.19;92116.31;4870464;29;20048;-93
2022/12/15 06:19:00;;;;;;;44.03;16.70;;;;;;;14.11;42.27;92123.59;4892105;29;20499;-92
2022/12/15 06:21:30;;;;;;;45.58;17.38;;;;;;;14.05;41.96;92118.25;4908095;28;20043;-88
2022/12/15 06:23:56;;;;;;;39.93;21.73;;;;;;;14.02;42.11;92126.69;4950069;28;20066;-89
2022/12/15 06:26:30;;;;;;;95.00;45.92;;;;;;;14.00;42.44;92116.31;4921122;28;20050;-92
2022/12/15 06:28:57;;;;;;;76.65;34.35;;;;;;;14.05;41.69;92131.81;4954522;28;20043;-92
2022/12/15 06:31:24;;;;;;;85.40;46.00;;;;;;;13.94;41.74;92126.50;4918826;28;20049;-91
2022/12/15 06:33:49;;;;;;;92.30;49.03;;;;;;;13.96;40.98;92139.59;4920686;28;20046;-89
2022/12/15 06:36:15;;;;;;;117.82;60.88;;;;;;;13.93;41.65;92130.47;4917225;28;20047;-87
2022/12/15 06:38:42;;;;;;;116.43;60.60;;;;;;;13.82;40.45;92127.16;4953772;28;20069;-88
2022/12/15 06:41:07;;;;;;;127.05;59.60;;;;;;;13.83;40.54;92129.38;4941026;28;20070;-88
2022/12/15 06:43:33;;;;;;;122.22;61.38;;;;;;;13.95;40.70;92138.13;4936314;28;20472;-89
2022/12/15 06:46:00;;;;;;;210.27;76.57;;;;;;;13.98;41.22;92135.13;4930558;28;20055;-86
2022/12/15 06:48:27;;;;;;;135.85;68.13;;;;;;;13.98;41.72;92135.13;4943580;28;20417;-89
2022/12/15 06:50:53;;;;;;;194.95;85.70;;;;;;;14.05;41.68;92142.69;4938267;29;20039;-88
2022/12/15 06:53:20;;;;;;;149.80;76.80;;;;;;;14.01;42.09;92150.41;4948441;28;20046;-87
2022/12/15 06:55:45;;;;;;;161.40;75.82;;;;;;;13.99;42.18;92154.88;4938593;28;20136;-87
2022/12/15 06:58:11;;;;;;;169.07;82.93;;;;;;;14.03;41.86;92158.78;4923210;28;20488;-89
2022/12/15 07:00:37;;;;;;;182.15;89.80;;;;;;;14.02;41.89;92156.56;4937669;28;20045;-91
2022/12/15 07:03:03;;;;;;;214.15;94.68;;;;;;;14.04;42.17;92168.38;4929191;28;20050;-90
2022/12/15 07:05:29;;;;;;;256.23;113.15;;;;;;;14.13;41.89;92174.69;4934625;28;20035;-86
2022/12/15 07:07:55;;;;;;;231.30;117.30;;;;;;;14.16;41.63;92179.13;4947283;28;20344;-86
2022/12/15 07:10:21;;;;;;;212.88;107.75;;;;;;;14.18;41.75;92171.19;4959235;28;20035;-92
2022/12/15 07:12:46;;;;;;;341.77;200.45;;;;;;;14.15;42.14;92178.38;4950800;28;20047;-92
2022/12/15 07:15:12;;;;;;;229.60;111.00;;;;;;;14.13;42.38;92172.72;4957312;28;20053;-84
2022/12/15 07:17:37;;;;;;;206.38;106.95;;;;;;;14.07;41.76;92180.22;4922104;28;20101;-89
2022/12/15 07:20:04;;;;;;;206.65;107.63;;;;;;;14.12;42.23;92187.56;4955282;28;20102;-88
2022/12/15 07:22:29;;;;;;;203.38;107.10;;;;;;;14.17;42.09;92196.91;4936844;28;20035;-87
2022/12/15 07:24:54;;;;;;;197.82;106.22;;;;;;;14.17;42.30;92184.03;4942072;28;20057;-90
2022/12/15 07:27:20;;;;;;;276.23;125.57;;;;;;;14.21;41.88;92208.22;4958507;28;20046;-91
2022/12/15 07:29:45;;;;;;;176.32;93.55;;;;;;;14.23;42.07;92206.47;4950579;28;20046;-86
2022/12/15 07:32:10;;;;;;;219.40;96.80;;;;;;;14.22;41.87;92194.13;4979896;28;20792;-86
2022/12/15 07:34:36;;;;;;;188.80;90.10;;;;;;;14.19;41.78;92197.84;4964316;28;20047;-86
2022/12/15 07:37:02;;;;;;;185.18;91.43;;;;;;;14.22;41.71;92194.13;4937891;28;20062;-87
2022/12/15 07:39:28;;;;;;;177.02;89.72;;;;;;;14.22;41.81;92196.84;4936862;28;20042;-84
2022/12/15 07:41:53;;;;;;;191.15;90.13;;;;;;;14.22;42.13;92199.56;4924648;28;20034;-88
2022/12/15 07:44:19;;;;;;;180.48;91.22;;;;;;;14.16;41.97;92209.00;4919707;28;20039;-86
2022/12/15 07:46:47;;;;;;;207.15;95.95;;;;;;;14.19;41.83;92210.72;4938795;28;20038;-88
2022/12/15 07:49:14;;;;;;;180.20;88.75;;;;;;;14.18;42.17;92206.50;4937356;28;20051;-87
2022/12/15 07:51:40;;;;;;;178.85;91.45;;;;;;;14.22;41.95;92196.09;4917192;28;20098;-89
2022/12/15 07:54:06;;;;;;;212.73;104.40;;;;;;;14.25;41.89;92195.06;4936682;28;20514;-88
2022/12/15 07:56:31;;;;;;;230.07;110.40;;;;;;;14.20;42.16;92202.03;4946632;28;20035;-86
2022/12/15 07:58:56;;;;;;;226.77;109.53;;;;;;;14.17;41.90;92199.59;4937922;28;20078;-89
2022/12/15 08:01:23;;;;;;;206.60;105.45;;;;;;;14.20;41.80;92204.03;4937850;28;20448;-92
2022/12/15 08:03:50;;;;;;;219.95;106.88;;;;;;;14.23;41.98;92208.44;4975048;28;20034;-83
2022/12/15 08:06:15;;;;;;;219.40;106.75;;;;;;;14.20;42.16;92209.47;4973487;28;20038;-88
2022/12/15 08:08:42;;;;;;;216.63;104.40;;;;;;;14.17;42.14;92213.94;4937440;28;20405;-86
2022/12/15 08:11:10;;;;;;;195.80;99.28;;;;;;;14.20;42.12;92218.34;4936735;28;20035;-93
2022/12/15 08:13:36;;;;;;;190.90;95.43;;;;;;;14.22;42.00;92226.72;4930491;28;20467;-87
2022/12/15 08:16:01;;;;;;;196.20;95.95;;;;;;;14.23;41.96;92220.03;4952859;28;20133;-88
2022/12/15 08:18:27;;;;;;;192.50;100.78;;;;;;;14.28;41.78;92232.09;4970611;28;20508;-87
2022/12/15 08:20:52;;;;;;;197.23;107.03;;;;;;;14.16;41.12;92225.31;4953214;28;20043;-92
2022/12/15 08:23:18;;;;;;;224.25;100.72;;;;;;;14.25;41.62;92222.25;4915164;28;20050;-89
2022/12/15 08:25:44;;;;;;;226.38;113.80;;;;;;;14.21;41.57;92214.38;4933413;28;20035;-84
2022/12/15 08:28:10;;;;;;;201.25;108.60;;;;;;;14.26;42.11;92229.16;4943962;28;20047;-88
2022/12/15 08:30:36;;;;;;;216.35;110.25;;;;;;;14.23;41.80;92230.19;4954028;28;20039;-87
2022/12/15 08:33:02;;;;;;;228.73;119.95;;;;;;;14.17;41.94;92232.97;4969849;28;20057;-92
2022/12/15 08:35:28;;;;;;;200.98;102.13;;;;;;;14.19;42.29;92216.13;4929139;28;20121;-90
2022/12/15 08:37:53;;;;;;;198.73;100.82;;;;;;;14.19;41.99;92210.72;4929268;28;20031;-87
2022/12/15 08:40:21;;;;;;;188.27;98.38;;;;;;;14.24;41.71;92213.38;4939206;28;20074;-92
2022/12/15 08:42:46;;;;;;;191.07;91.57;;;;;;;14.28;42.49;92221.25;4971450;28;20182;-88
2022/12/15 08:45:11;;;;;;;183.05;90.57;;;;;;;14.33;41.74;92225.84;4930941;28;20079;-93
2022/12/15 08:47:38;;;;;;;169.48;88.15;;;;;;;14.25;41.89;92223.00;4959011;28;20496;-85
2022/12/15 08:50:05;;;;;;;174.07;89.72;;;;;;;14.28;41.83;92243.72;4950465;28;20049;-87
2022/12/15 08:52:31;;;;;;;175.05;86.20;;;;;;;14.24;42.03;92239.81;4919740;28;20287;-89
2022/12/15 08:54:56;;;;;;;174.02;86.70;;;;;;;14.27;42.38;92225.94;4949338;28;20548;-88
2022/12/15 08:57:22;;;;;;;186.52;92.97;;;;;;;14.22;42.26;92228.72;4953017;28;20051;-91
2022/12/15 08:59:47;;;;;;;155.98;80.78;;;;;;;14.28;42.03;92232.84;4953573;28;20401;-86
2022/12/15 09:02:14;;;;;;;175.45;90.25;;;;;;;14.27;41.90;92233.34;4950811;28;20053;-86
2022/12/15 09:04:39;;;;;;;178.00;92.40;;;;;;;14.32;41.83;92235.25;4933959;28;20047;-86
2022/12/15 09:07:05;;;;;;;155.25;85.20;;;;;;;14.06;40.28;92252.13;4956858;28;20074;-85
2022/12/15 09:09:30;;;;;;;158.48;83.75;;;;;;;14.04;40.53;92249.16;4959762;28;20039;-90
2022/12/15 09:11:57;;;;;;;170.70;85.38;;;;;;;14.15;40.47;92248.31;4963534;28;20103;-94
2022/12/15 09:14:22;;;;;;;170.52;88.05;;;;;;;14.08;40.51;92244.91;4963405;28;20035;-94
2022/12/15 09:16:48;;;;;;;149.77;75.05;;;;;;;14.05;40.11;92256.81;4956857;28;20041;-94
2022/12/15 09:19:14;;;;;;;167.70;88.30;;;;;;;14.07;40.81;92251.59;4939040;28;20039;-94
2022/12/15 09:21:43;;;;;;;177.20;84.15;;;;;;;14.20;41.39;92239.34;4936040;28;20081;-90
2022/12/15 09:24:11;;;;;;;203.68;99.25;;;;;;;14.14;41.92;92258.44;4952563;28;20039;-87
2022/12/15 09:26:39;;;;;;;220.18;101.70;;;;;;;14.21;42.53;92259.84;4931182;28;20055;-89
2022/12/15 09:29:04;;;;;;;205.70;100.82;;;;;;;14.16;42.79;92260.66;4948257;28;20496;-87
2022/12/15 09:31:35;;;;;;;221.38;99.70;;;;;;;14.18;42.68;92250.00;4950418;28;20081;-86
2022/12/15 09:34:00;;;;;;;206.05;108.45;;;;;;;14.16;42.64;92245.06;4939079;28;20137;-86
2022/12/15 09:36:28;;;;;;;226.02;117.75;;;;;;;14.20;43.60;92255.66;4944549;28;20070;-86
2022/12/15 09:38:54;;;;;;;211.68;113.78;;;;;;;14.28;43.35;92245.69;4922250;28;20039;-88
2022/12/15 09:41:22;;;;;;;204.85;109.88;;;;;;;14.30;42.82;92254.78;4937671;28;20117;-94
2022/12/15 09:43:54;;;;;;;242.63;122.75;;;;;;;14.21;43.62;92249.72;4921913;28;20225;-87
2022/12/15 09:46:31;;;;;;;233.63;116.88;;;;;;;14.18;43.41;92250.00;4939309;28;20635;-87
2022/12/15 09:48:57;;;;;;;214.00;109.57;;;;;;;14.20;43.64;92244.78;4946010;28;20059;-90
2022/12/15 09:51:31;;;;;;;220.27;109.30;;;;;;;14.24;43.64;92245.25;4964504;28;20050;-89
2022/12/15 09:53:57;;;;;;;201.93;102.22;;;;;;;14.28;43.25;92246.44;4915362;29;20043;-88
2022/12/15 09:56:27;;;;;;;256.80;130.35;;;;;;;14.23;43.55;92249.94;4947575;28;20152;-88
2022/12/15 09:59:02;;;;;;;240.00;121.22;;;;;;;14.22;43.56;92248.47;4935532;28;20113;-88
2022/12/15 10:01:41;;;;;;;221.07;109.63;;;;;;;14.30;43.58;92268.38;4938028;28;20125;-87
2022/12/15 10:04:25;;;;;;;218.48;112.22;;;;;;;14.28;43.46;92264.72;4949955;28;20043;-88
2022/12/15 10:06:57;;;;;;;239.00;124.30;;;;;;;14.29;43.78;92269.63;4953415;28;20046;-90
2022/12/15 10:09:28;;;;;;;224.18;118.93;;;;;;;14.29;43.61;92288.66;4960589;28;20046;-87
2022/12/15 10:11:54;;;;;;;246.45;123.38;;;;;;;14.31;43.79;92290.88;4940009;28;20042;-91
2022/12/15 10:14:36;;;;;;;213.95;108.82;;;;;;;14.35;43.70;92280.44;4956984;28;20497;-90
2022/12/15 10:17:15;;;;;;;241.23;123.05;;;;;;;14.36;43.82;92292.78;4955108;28;20078;-90
2022/12/15 10:19:43;;;;;;;223.73;112.97;;;;;;;14.35;43.85;92283.16;4942788;28;20086;-92
2022/12/15 10:22:13;;;;;;;226.65;122.18;;;;;;;14.40;43.76;92279.66;4955431;28;20039;-92
2022/12/15 10:24:39;;;;;;;237.60;124.37;;;;;;;14.36;43.88;92284.63;4917495;29;20096;-93
2022/12/15 10:27:13;;;;;;;230.00;124.03;;;;;;;14.33;43.86;92272.78;4922523;29;20051;-87
2022/12/15 10:29:46;;;;;;;258.70;138.43;;;;;;;14.38;43.76;92260.41;4903936;29;20076;-91
2022/12/15 10:32:19;;;;;;;299.73;159.30;;;;;;;14.37;44.02;92264.34;4888035;29;20083;-92
2022/12/15 10:34:44;;;;;;;355.65;135.25;;;;;;;14.35;41.90;92275.75;4917414;29;20039;-89
2022/12/15 10:37:18;;;;;;;146.85;73.65;;;;;;;14.16;40.23;92271.50;4902942;29;20083;-87
2022/12/15 10:39:46;;;;;;;135.30;68.28;;;;;;;14.12;40.17;92271.06;4900494;29;20135;-93
2022/12/15 10:42:24;;;;;;;139.27;77.25;;;;;;;14.13;40.32;92267.09;4893712;29;20058;-89
2022/12/15 10:44:54;;;;;;;142.10;77.35;;;;;;;14.17;40.73;92254.69;4898668;29;20055;-91
2022/12/15 10:47:24;;;;;;;177.40;95.40;;;;;;;14.06;40.07;92260.28;4880666;29;20040;-91
2022/12/15 10:49:50;;;;;;;130.93;70.72;;;;;;;13.89;39.11;92257.69;4899868;29;20062;-86
2022/12/15 10:52:26;;;;;;;168.38;63.97;;;;;;;13.75;38.55;92264.25;4883436;29;20051;-89
2022/12/15 10:54:53;;;;;;;105.38;54.25;;;;;;;13.63;38.62;92268.34;4936411;28;20046;-91
2022/12/15 10:57:29;;;;;;;115.90;57.30;;;;;;;13.77;39.10;92258.31;4931273;28;20043;-93
2022/12/15 11:00:14;;;;;;;108.60;54.33;;;;;;;13.87;39.21;92256.72;4934943;29;20047;-92
2022/12/15 11:02:41;;;;;;;147.77;68.78;;;;;;;13.93;40.08;92250.00;4941117;28;20618;-89
2022/12/15 11:05:14;;;;;;;174.30;85.07;;;;;;;13.95;40.34;92235.91;4922264;28;20101;-94
2022/12/15 11:07:51;;;;;;;206.10;108.00;;;;;;;13.97;41.18;92228.72;4954359;28;20051;-89
2022/12/15 11:10:26;;;;;;;217.48;117.90;;;;;;;14.02;42.10;92219.06;4918334;28;20142;-92
2022/12/15 11:12:55;;;;;;;218.38;115.47;;;;;;;14.02;41.87;92210.91;4952099;28;20063;-91
2022/12/15 11:15:21;;;;;;;201.63;102.43;;;;;;;14.07;41.81;92218.25;4968862;28;20036;-89
2022/12/15 11:17:50;;;;;;;192.73;100.38;;;;;;;14.05;42.08;92212.59;4938679;28;20478;-89
2022/12/15 11:20:20;;;;;;;179.00;93.00;;;;;;;14.14;42.05;92219.66;4947593;28;20154;-91
2022/12/15 11:22:51;;;;;;;170.47;91.73;;;;;;;14.10;41.49;92219.19;4944013;28;20343;-87
2022/12/15 11:25:21;;;;;;;184.55;101.40;;;;;;;14.12;41.34;92212.00;4926563;28;20369;-90
2022/12/15 11:27:46;;;;;;;144.98;83.15;;;;;;;14.11;41.79;92215.25;4955823;28;20066;-85
2022/12/15 11:30:15;;;;;;;145.57;83.32;;;;;;;14.18;42.06;92211.94;4941433;28;20043;-88
2022/12/15 11:32:52;;;;;;;150.90;82.68;;;;;;;14.19;41.68;92205.28;4953392;28;20053;-88
2022/12/15 11:35:21;;;;;;;150.35;79.80;;;;;;;14.17;41.90;92205.03;4925670;28;20054;-88
2022/12/15 11:38:08;;;;;;;125.57;70.85;;;;;;;14.18;41.83;92215.41;4925805;29;20043;-89
2022/12/15 11:40:41;;;;;;;135.95;74.15;;;;;;;14.17;41.39;92216.66;4924327;29;20040;-87
2022/12/15 11:43:24;;;;;;;126.28;69.35;;;;;;;14.18;41.37;92220.09;4936919;28;20051;-87
2022/12/15 11:46:03;;;;;;;123.50;69.30;;;;;;;14.18;41.65;92215.41;4939426;29;20617;-89
2022/12/15 11:48:35;;;;;;;118.07;68.30;;;;;;;14.20;41.74;92209.47;4941362;28;20446;-90
2022/12/15 11:51:15;;;;;;;203.40;71.35;;;;;;;14.24;41.99;92202.50;4960215;28;20051;-88
2022/12/15 11:54:06;;;;;;;116.40;63.67;;;;;;;14.32;42.03;92208.06;4960647;28;20050;-86
2022/12/15 11:56:38;;;;;;;114.35;64.15;;;;;;;14.32;41.60;92219.69;4924409;29;20070;-89
2022/12/15 11:59:25;;;;;;;131.50;62.08;;;;;;;14.36;41.77;92217.41;4952548;28;20560;-90
2022/12/15 12:02:10;;;;;;;82.32;43.75;;;;;;;14.04;39.51;92219.28;4954961;28;20492;-88
2022/12/15 12:05:14;;;;;;;80.40;44.53;;;;;;;13.84;39.02;92227.91;4953191;28;20039;-85
2022/12/15 12:07:47;;;;;;;98.05;50.03;;;;;;;13.68;38.63;92216.66;4982954;23;20034;-88
2022/12/15 12:10:25;;;;;;;118.55;52.08;;;;;;;13.74;39.08;92222.06;4997477;28;20065;-87
2022/12/15 12:13:00;;;;;;;114.90;52.10;;;;;;;13.82;39.44;92222.97;4955242;28;20078;-89
2022/12/15 12:15:46;;;;;;;135.55;61.60;;;;;;;13.84;39.19;92223.19;4955219;28;20049;-89
2022/12/15 12:18:21;;;;;;;183.68;81.60;;;;;;;13.95;40.02;92225.06;4955793;28;20038;-88
2022/12/15 12:21:01;;;;;;;159.93;71.28;;;;;;;13.97;40.48;92239.59;4973981;28;20380;-91
2022/12/15 12:23:57;;;;;;;149.30;67.20;;;;;;;14.02;40.58;92244.25;5004701;28;20046;-88
2022/12/15 12:26:34;;;;;;;157.93;78.25;;;;;;;14.06;41.08;92235.81;5000303;28;20606;-88
2022/12/15 12:29:02;;;;;;;171.98;84.05;;;;;;;14.07;41.05;92232.56;4969915;28;20334;-86
2022/12/15 12:31:48;;;;;;;201.82;104.38;;;;;;;14.12;41.58;92219.44;5002006;28;20066;-92
2022/12/15 12:34:36;;;;;;;216.90;113.85;;;;;;;14.12;41.48;92200.41;4970012;28;20038;-89
2022/12/15 12:37:21;;;;;;;224.77;105.28;;;;;;;14.14;41.21;92193.22;4957998;28;20047;-90
2022/12/15 12:39:47;;;;;;;155.05;78.50;;;;;;;14.07;39.83;92201.97;4990002;28;20073;-90
2022/12/15 12:42:21;;;;;;;180.63;85.13;;;;;;;14.05;39.92;92193.59;4976130;28;20043;-90
2022/12/15 12:44:46;;;;;;;183.60;89.93;;;;;;;14.05;40.84;92182.72;4984914;28;20038;-89
2022/12/15 12:47:26;;;;;;;164.82;86.90;;;;;;;14.11;41.16;92185.34;4956884;28;20041;-90
2022/12/15 12:49:53;;;;;;;187.40;91.97;;;;;;;14.16;41.74;92171.69;4973772;28;20042;-89
2022/12/15 12:52:21;;;;;;;181.73;90.78;;;;;;;14.18;41.62;92176.63;4973593;28;20058;-92
2022/12/15 12:54:55;;;;;;;166.73;86.47;;;;;;;14.17;42.05;92167.72;4979577;28;20496;-92
2022/12/15 12:57:20;;;;;;;159.00;84.15;;;;;;;14.21;42.04;92165.47;4988698;28;20038;-88
2022/12/15 12:59:55;;;;;;;163.10;82.18;;;;;;;14.17;42.50;92175.16;4991413;28;20046;-91
2022/12/15 13:02:20;;;;;;;165.40;85.07;;;;;;;14.17;42.61;92175.88;4986888;28;20120;-87
2022/12/15 13:05:07;;;;;;;165.88;84.82;;;;;;;14.16;42.53;92163.53;4989297;28;20165;-89
2022/12/15 13:07:35;;;;;;;192.10;93.80;;;;;;;14.19;42.98;92173.41;4946989;28;20404;-89
2022/12/15 13:10:03;;;;;;;183.75;96.22;;;;;;;14.24;42.82;92167.16;4958136;28;20050;-93
2022/12/15 13:12:33;;;;;;;167.30;87.00;;;;;;;14.07;42.20;92164.63;5002583;28;20582;-89
2022/12/15 13:14:58;;;;;;;175.50;93.57;;;;;;;14.11;42.39;92169.03;5006645;28;20045;-90
2022/12/15 13:17:29;;;;;;;172.10;89.47;;;;;;;14.18;42.57;92173.91;4969430;28;20373;-92
2022/12/15 13:19:57;;;;;;;184.50;99.57;;;;;;;14.16;42.32;92168.97;4977479;28;20113;-89
2022/12/15 13:22:30;;;;;;;206.40;105.32;;;;;;;14.16;42.49;92182.56;5009909;28;20072;-89
2022/12/15 13:24:56;;;;;;;218.88;114.88;;;;;;;14.18;42.31;92177.34;5006135;28;20496;-89
2022/12/15 13:27:21;;;;;;;221.00;114.38;;;;;;;14.19;42.26;92186.25;4998161;28;20069;-90
2022/12/15 13:29:57;;;;;;;220.18;110.95;;;;;;;14.24;42.30;92186.19;4978753;28;20042;-90
2022/12/15 13:32:44;;;;;;;210.18;110.00;;;;;;;14.29;42.61;92179.91;4992976;28;20081;-91
2022/12/15 13:35:12;;;;;;;217.68;105.85;;;;;;;14.40;43.31;92196.13;4954131;28;20125;-93
2022/12/15 13:37:47;;;;;;;178.50;95.28;;;;;;;14.39;42.64;92199.34;4970373;28;20039;-84
2022/12/15 13:40:23;;;;;;;182.90;95.03;;;;;;;14.40;42.86;92198.09;4963435;28;20100;-90
2022/12/15 13:43:03;;;;;;;179.88;94.80;;;;;;;14.43;42.71;92202.53;4971604;28;20547;-89
2022/12/15 13:45:57;;;;;;;208.13;106.10;;;;;;;14.41;42.89;92210.47;4961725;28;20042;-87
2022/12/15 13:48:38;;;;;;;144.82;83.55;;;;;;;14.38;42.34;92197.88;4997538;28;20054;-92
2022/12/15 13:51:25;;;;;;;145.48;81.57;;;;;;;14.37;42.54;92188.97;4993867;28;20053;-89
2022/12/15 13:53:55;;;;;;;149.63;81.40;;;;;;;14.37;42.92;92199.13;4977691;28;20292;-93